KDUC

Halliburton Field Airport

Duncan, Oklahoma, USA
METAR KDUC 221735Z AUTO 14009KT 120V190 10SM SCT036 BKN044 29/20 A3003 RMK AO2 T02860202
Observed Flight Rules
May-22 @ 17:35 UTC (18 minutes ago) Visual Flight Rules
Wind Visibility Clouds
140° at 9 knots 10 miles
  • Scattered at 3,600' AGL
  • Broken at 4,400' AGL
Temperatures Readings
Current 29°C / 84°F
Dewpoint 20°C / 68°F
Humidity 58%
Altimeter 30.03" Hg
Pressure 1017 hPa
Elevation 339
METAR KDUC 221735Z AUTO 14009KT 120V190 10SM SCT036 BKN044 29/20 A3003 RMK AO2 T02860202
Observed Flight Rules
May-22 @ 17:35 UTC
(18 minutes ago)
VFR
Wind Visibility
140° at 9 knots 10 miles
Clouds
  • Scattered at 3,600' AGL
  • Broken at 4,400' AGL
Temperature Dewpoint
29°C / 84°F 20°C / 68°F
Humidity Altimeter Pressure
58% 30.03" Hg 1017 hPa